createdAt,value
2022-09-26T00:00:24.091Z,12.40
2022-09-26T00:01:32.189Z,12.50
2022-09-26T00:02:34.016Z,12.40
2022-09-26T00:03:36.347Z,12.40
2022-09-26T00:04:38.466Z,12.40
2022-09-26T00:05:40.155Z,12.40
2022-09-26T00:06:42.346Z,12.40
2022-09-26T00:07:43.734Z,12.40
2022-09-26T00:08:47.003Z,12.40
2022-09-26T00:09:49.047Z,12.40
2022-09-26T00:11:00.635Z,12.40
2022-09-26T00:12:04.185Z,12.30
2022-09-26T00:13:05.983Z,12.30
2022-09-26T00:14:15.297Z,12.30
2022-09-26T00:15:17.486Z,12.40
2022-09-26T00:16:19.623Z,12.30
2022-09-26T00:17:21.366Z,12.30
2022-09-26T00:18:23.864Z,12.30
2022-09-26T00:19:25.716Z,12.30
2022-09-26T00:20:27.407Z,12.30
2022-09-26T00:21:30.383Z,12.30
2022-09-26T00:22:32.166Z,12.30
2022-09-26T00:23:33.626Z,12.40
2022-09-26T00:24:35.163Z,12.40
2022-09-26T00:25:36.724Z,12.40
2022-09-26T00:26:38.652Z,12.40
2022-09-26T00:27:40.262Z,12.40
2022-09-26T00:28:42.492Z,12.40
2022-09-26T00:29:43.901Z,12.40
2022-09-26T00:30:45.649Z,12.40
2022-09-26T00:31:48.974Z,12.40
2022-09-26T00:32:50.409Z,12.30
2022-09-26T00:33:52.174Z,12.30
2022-09-26T00:34:53.825Z,12.30
2022-09-26T00:35:57.121Z,12.30
2022-09-26T00:36:58.986Z,12.30
2022-09-26T00:38:00.610Z,12.30
2022-09-26T00:39:02.163Z,12.30
2022-09-26T00:40:04.855Z,12.30
2022-09-26T00:41:07.336Z,12.40
2022-09-26T00:42:14.275Z,12.40
2022-09-26T00:43:36.980Z,12.40
2022-09-26T00:44:45.234Z,12.40
2022-09-26T00:45:46.672Z,12.40
2022-09-26T00:46:50.700Z,12.30
2022-09-26T00:48:02.074Z,12.30
2022-09-26T00:49:31.409Z,12.30
2022-09-26T00:50:37.733Z,12.30
2022-09-26T00:51:45.092Z,12.30
2022-09-26T00:53:06.828Z,12.20
2022-09-26T00:54:14.791Z,12.30
2022-09-26T00:55:19.421Z,12.30
2022-09-26T00:56:30.282Z,12.20
2022-09-26T00:57:45.379Z,12.20
2022-09-26T00:59:04.095Z,12.30
2022-09-26T01:00:09.707Z,12.30
2022-09-26T01:01:12.180Z,12.20
2022-09-26T01:02:15.047Z,12.30
2022-09-26T01:03:17.430Z,12.20
2022-09-26T01:04:20.226Z,12.20
2022-09-26T01:05:23.297Z,12.30
2022-09-26T01:06:24.810Z,12.20
2022-09-26T01:07:28.324Z,12.30
2022-09-26T01:08:34.777Z,12.30
2022-09-26T01:09:37.936Z,12.30
2022-09-26T01:10:39.906Z,12.30
2022-09-26T01:11:43.302Z,12.30
2022-09-26T01:12:44.971Z,12.20
2022-09-26T01:13:47.995Z,12.30
2022-09-26T01:14:53.696Z,12.30
2022-09-26T01:15:56.718Z,12.30
2022-09-26T01:16:58.343Z,12.30
2022-09-26T01:18:00.003Z,12.30
2022-09-26T01:19:04.653Z,12.30
2022-09-26T01:20:20.624Z,12.30
2022-09-26T01:21:41.379Z,12.30
2022-09-26T01:23:19.903Z,12.30
2022-09-26T01:24:40.273Z,12.30
2022-09-26T01:26:12.570Z,12.30
2022-09-26T01:27:30.273Z,12.30
2022-09-26T01:28:42.355Z,12.20
2022-09-26T01:30:02.162Z,12.20
2022-09-26T01:31:13.863Z,12.30
2022-09-26T01:32:48.873Z,12.20
2022-09-26T01:34:16.881Z,12.20
2022-09-26T01:35:33.151Z,12.20
2022-09-26T01:36:55.948Z,12.20
2022-09-26T01:38:28.729Z,12.30
2022-09-26T01:39:50.580Z,12.40
2022-09-26T01:41:16.673Z,12.40
2022-09-26T01:42:32.684Z,12.30
2022-09-26T01:43:56.963Z,12.30
2022-09-26T01:45:27.589Z,12.30
2022-09-26T01:46:41.881Z,12.30
2022-09-26T01:47:55.598Z,12.20
2022-09-26T01:49:24.707Z,12.30
2022-09-26T01:50:45.255Z,12.30
2022-09-26T01:51:52.195Z,12.30
2022-09-26T01:53:01.653Z,12.30
2022-09-26T01:54:16.070Z,12.30
2022-09-26T01:55:28.250Z,12.30
2022-09-26T01:56:33.852Z,12.30
2022-09-26T01:58:05.569Z,12.30
2022-09-26T01:59:18.572Z,12.30
2022-09-26T02:00:24.504Z,12.30
2022-09-26T02:01:29.435Z,12.40
2022-09-26T02:02:36.196Z,12.40
2022-09-26T02:03:46.159Z,12.40
2022-09-26T02:04:53.154Z,12.40
2022-09-26T02:06:04.315Z,12.40
2022-09-26T02:07:28.528Z,12.50
2022-09-26T02:08:39.237Z,12.40
2022-09-26T02:10:02.619Z,12.50
2022-09-26T02:11:13.506Z,12.40
2022-09-26T02:12:34.058Z,12.40
2022-09-26T02:13:42.018Z,12.40
2022-09-26T02:14:45.821Z,12.40
2022-09-26T02:15:53.334Z,12.40
2022-09-26T02:16:58.772Z,12.40
2022-09-26T02:18:10.272Z,12.30
2022-09-26T02:19:20.943Z,12.30
2022-09-26T02:20:34.975Z,12.40
2022-09-26T02:21:38.629Z,12.40
2022-09-26T02:22:40.333Z,12.30
2022-09-26T02:23:41.869Z,12.30
2022-09-26T02:24:43.846Z,12.30
2022-09-26T02:25:45.263Z,12.30
2022-09-26T02:26:46.722Z,12.30
2022-09-26T02:27:49.906Z,12.30
2022-09-26T02:28:52.388Z,12.40
2022-09-26T02:29:55.453Z,12.40
2022-09-26T02:31:01.100Z,12.40
2022-09-26T02:32:15.516Z,12.50
2022-09-26T02:33:17.217Z,12.50
2022-09-26T02:34:18.796Z,12.50
2022-09-26T02:35:39.517Z,12.50
2022-09-26T02:36:41.339Z,12.40
2022-09-26T02:37:43.144Z,12.40
2022-09-26T02:38:45.203Z,12.40
2022-09-26T02:40:05.844Z,12.40
2022-09-26T02:41:43.830Z,12.40
2022-09-26T02:42:57.980Z,12.40
2022-09-26T02:44:12.267Z,12.40
2022-09-26T02:45:17.893Z,12.40
2022-09-26T02:46:44.793Z,12.40
2022-09-26T02:48:13.132Z,12.40
2022-09-26T02:50:00.305Z,12.40
2022-09-26T02:51:21.167Z,12.30
2022-09-26T02:52:31.551Z,12.30
2022-09-26T02:53:51.135Z,12.30
2022-09-26T02:55:02.170Z,12.40
2022-09-26T02:56:32.436Z,12.40
2022-09-26T02:57:46.183Z,12.40
2022-09-26T02:58:59.681Z,12.30
2022-09-26T03:00:21.666Z,12.30
2022-09-26T03:01:49.485Z,12.30
2022-09-26T03:03:03.490Z,12.40
2022-09-26T03:04:35.068Z,12.30
2022-09-26T03:05:41.479Z,12.30
2022-09-26T03:06:45.773Z,12.30
2022-09-26T03:08:14.130Z,12.30
2022-09-26T03:09:17.576Z,12.30
2022-09-26T03:10:20.656Z,12.30
2022-09-26T03:11:25.730Z,12.30
2022-09-26T03:12:31.281Z,12.30
2022-09-26T03:13:38.372Z,12.30
2022-09-26T03:14:42.731Z,12.30
2022-09-26T03:15:48.677Z,12.30
2022-09-26T03:16:52.052Z,12.40
2022-09-26T03:17:57.081Z,12.40
2022-09-26T03:19:01.023Z,12.40
2022-09-26T03:20:14.676Z,12.40
2022-09-26T03:21:16.855Z,12.40
2022-09-26T03:22:18.676Z,12.40
2022-09-26T03:23:25.137Z,12.40
2022-09-26T03:24:27.727Z,12.40
2022-09-26T03:25:31.643Z,12.40
2022-09-26T03:26:39.976Z,12.30
2022-09-26T03:27:44.004Z,12.30
2022-09-26T03:28:46.167Z,12.30
2022-09-26T03:29:48.182Z,12.20
2022-09-26T03:30:55.497Z,12.20
2022-09-26T03:32:02.482Z,12.20
2022-09-26T03:33:04.343Z,12.30
2022-09-26T03:34:05.949Z,12.20
2022-09-26T03:35:08.575Z,12.20
2022-09-26T03:36:10.374Z,12.10
2022-09-26T03:37:12.377Z,12.10
2022-09-26T03:38:14.591Z,12.10
2022-09-26T03:39:22.484Z,12.10
2022-09-26T03:40:35.021Z,12.10
2022-09-26T03:41:58.322Z,12.10
2022-09-26T03:43:01.259Z,12.00
2022-09-26T03:44:03.672Z,12.00
2022-09-26T03:45:25.357Z,12.10
2022-09-26T03:46:37.548Z,12.00
2022-09-26T03:47:41.989Z,12.00
2022-09-26T03:48:43.723Z,12.10
2022-09-26T03:49:45.492Z,12.10
2022-09-26T03:50:47.372Z,12.10
2022-09-26T03:51:49.246Z,12.10
2022-09-26T03:52:50.714Z,12.20
2022-09-26T03:53:52.279Z,12.10
2022-09-26T03:54:55.691Z,12.10
2022-09-26T03:56:04.014Z,12.10
2022-09-26T03:57:05.500Z,12.10
2022-09-26T03:58:10.209Z,12.00
2022-09-26T03:59:13.800Z,11.90
2022-09-26T04:00:16.555Z,11.90
2022-09-26T04:01:20.831Z,11.80
2022-09-26T04:02:22.801Z,11.80
2022-09-26T04:03:37.493Z,11.80
2022-09-26T04:04:38.871Z,11.70
2022-09-26T04:05:40.404Z,11.80
2022-09-26T04:06:43.221Z,11.80
2022-09-26T04:07:44.947Z,11.80
2022-09-26T04:08:48.266Z,11.70
2022-09-26T04:09:49.902Z,11.80
2022-09-26T04:10:51.308Z,11.70
2022-09-26T04:11:53.641Z,11.70
2022-09-26T04:12:56.975Z,11.60
2022-09-26T04:13:59.984Z,11.50
2022-09-26T04:15:09.671Z,11.50
2022-09-26T04:16:11.731Z,11.50
2022-09-26T04:17:14.206Z,11.50
2022-09-26T04:18:18.699Z,11.50
2022-09-26T04:19:20.154Z,11.40
2022-09-26T04:20:21.552Z,11.40
2022-09-26T04:21:24.536Z,11.40
2022-09-26T04:22:26.099Z,11.40
2022-09-26T04:23:30.191Z,11.40
2022-09-26T04:24:32.768Z,11.30
2022-09-26T04:25:37.243Z,11.40
2022-09-26T04:26:41.274Z,11.40
2022-09-26T04:27:43.135Z,11.30
2022-09-26T04:28:45.844Z,11.20
2022-09-26T04:29:47.339Z,11.30
2022-09-26T04:30:58.368Z,11.30
2022-09-26T04:31:59.892Z,11.30
2022-09-26T04:33:09.361Z,11.30
2022-09-26T04:34:11.537Z,11.20
2022-09-26T04:35:13.057Z,11.30
2022-09-26T04:36:15.898Z,11.20
2022-09-26T04:37:17.681Z,11.30
2022-09-26T04:38:19.136Z,11.30
2022-09-26T04:39:21.139Z,11.30
2022-09-26T04:40:23.416Z,11.30
2022-09-26T04:41:39.306Z,11.30
2022-09-26T04:42:42.583Z,11.30
2022-09-26T04:43:45.045Z,11.30
2022-09-26T04:44:48.223Z,11.30
2022-09-26T04:45:50.952Z,11.30
2022-09-26T04:46:54.057Z,11.30
2022-09-26T04:48:02.190Z,11.30
2022-09-26T04:49:24.054Z,11.30
2022-09-26T04:50:26.490Z,11.40
2022-09-26T04:51:41.912Z,11.40
2022-09-26T04:52:44.708Z,11.40
2022-09-26T04:53:46.297Z,11.40
2022-09-26T04:54:54.422Z,11.40
2022-09-26T04:55:56.104Z,11.40
2022-09-26T04:57:00.483Z,11.40
2022-09-26T04:58:02.566Z,11.40
2022-09-26T04:59:05.436Z,11.40
2022-09-26T05:00:23.249Z,11.40
2022-09-26T05:01:26.121Z,11.40
2022-09-26T05:02:30.630Z,11.40
2022-09-26T05:03:33.727Z,11.40
2022-09-26T05:04:36.018Z,11.40
2022-09-26T05:05:37.530Z,11.40
2022-09-26T05:06:40.036Z,11.40
2022-09-26T05:07:46.356Z,11.50
2022-09-26T05:08:49.121Z,11.50
2022-09-26T05:09:55.384Z,11.40
2022-09-26T05:10:58.928Z,11.40
2022-09-26T05:12:00.435Z,11.40
2022-09-26T05:13:03.402Z,11.50
2022-09-26T05:14:04.939Z,11.50
2022-09-26T05:15:11.404Z,11.40
2022-09-26T05:16:14.377Z,11.40
2022-09-26T05:17:16.421Z,11.40
2022-09-26T05:18:21.390Z,11.40
2022-09-26T05:19:23.088Z,11.40
2022-09-26T05:20:51.313Z,11.40
2022-09-26T05:21:52.778Z,11.40
2022-09-26T05:22:57.524Z,11.40
2022-09-26T05:24:18.556Z,11.30
2022-09-26T05:25:38.633Z,11.30
2022-09-26T05:26:47.005Z,11.30
2022-09-26T05:27:49.160Z,11.30
2022-09-26T05:29:07.004Z,11.20
2022-09-26T05:30:31.407Z,11.20
2022-09-26T05:31:36.514Z,11.30
2022-09-26T05:32:39.153Z,11.30
2022-09-26T05:33:41.128Z,11.30
2022-09-26T05:34:47.134Z,11.30
2022-09-26T05:35:54.755Z,11.30
2022-09-26T05:36:56.521Z,11.40
2022-09-26T05:37:59.706Z,11.30
2022-09-26T05:39:01.999Z,11.30
2022-09-26T05:40:23.043Z,11.30
2022-09-26T05:41:31.342Z,11.30
2022-09-26T05:42:33.396Z,11.30
2022-09-26T05:43:35.048Z,11.20
2022-09-26T05:44:40.003Z,11.20
2022-09-26T05:45:41.644Z,11.30
2022-09-26T05:46:44.519Z,11.20
2022-09-26T05:47:48.625Z,11.30
2022-09-26T05:48:51.057Z,11.30
2022-09-26T05:49:56.052Z,11.30
2022-09-26T05:51:12.533Z,11.30
2022-09-26T05:52:16.950Z,11.30
2022-09-26T05:53:19.476Z,11.40
2022-09-26T05:54:21.078Z,11.40
2022-09-26T05:55:26.367Z,11.30
2022-09-26T05:56:53.883Z,11.30
2022-09-26T05:58:15.597Z,11.30
2022-09-26T05:59:36.995Z,11.30
2022-09-26T06:01:12.070Z,11.30
2022-09-26T06:02:17.218Z,11.30
2022-09-26T06:04:00.514Z,11.30
2022-09-26T06:05:04.060Z,11.30
2022-09-26T06:06:23.957Z,11.30
2022-09-26T06:07:30.539Z,11.30
2022-09-26T06:08:32.632Z,11.30
2022-09-26T06:09:50.431Z,11.30
2022-09-26T06:11:15.274Z,11.40
2022-09-26T06:12:19.612Z,11.40
2022-09-26T06:13:21.490Z,11.40
2022-09-26T06:14:26.228Z,11.40
2022-09-26T06:15:30.032Z,11.40
2022-09-26T06:16:31.677Z,11.40
2022-09-26T06:17:33.240Z,11.50
2022-09-26T06:18:39.109Z,11.50
2022-09-26T06:19:40.659Z,11.50
2022-09-26T06:20:42.632Z,11.50
2022-09-26T06:21:44.212Z,11.50
2022-09-26T06:22:49.525Z,11.50
2022-09-26T06:23:51.640Z,11.60
2022-09-26T06:24:55.309Z,11.60
2022-09-26T06:25:59.172Z,11.60
2022-09-26T06:27:00.647Z,11.60
2022-09-26T06:28:02.326Z,11.60
2022-09-26T06:29:05.500Z,11.60
2022-09-26T06:30:13.392Z,11.70
2022-09-26T06:31:18.348Z,11.70
2022-09-26T06:32:42.882Z,11.70
2022-09-26T06:34:07.854Z,11.80
2022-09-26T06:35:21.335Z,11.80
2022-09-26T06:36:37.589Z,11.80
2022-09-26T06:37:39.707Z,11.90
2022-09-26T06:38:41.262Z,11.90
2022-09-26T06:39:48.650Z,11.90
2022-09-26T06:40:53.015Z,11.90
2022-09-26T06:41:56.023Z,12.00
2022-09-26T06:43:04.074Z,12.00
2022-09-26T06:44:44.610Z,12.00
2022-09-26T06:45:57.885Z,12.10
2022-09-26T06:47:13.213Z,12.00
2022-09-26T06:48:17.383Z,12.10
2022-09-26T06:49:30.844Z,12.10
2022-09-26T06:50:37.997Z,12.10
2022-09-26T06:51:39.481Z,12.10
2022-09-26T06:52:44.235Z,12.10
2022-09-26T06:53:47.399Z,12.10
2022-09-26T06:54:56.804Z,12.10
2022-09-26T06:55:58.889Z,12.10
2022-09-26T06:57:01.510Z,12.10
2022-09-26T06:58:03.124Z,12.10
2022-09-26T06:59:10.879Z,12.10
2022-09-26T07:00:25.088Z,12.20
2022-09-26T07:01:39.613Z,12.10
2022-09-26T07:02:54.828Z,12.10
2022-09-26T07:04:16.036Z,12.10
2022-09-26T07:05:39.859Z,12.10
2022-09-26T07:06:42.261Z,12.10
2022-09-26T07:07:45.549Z,12.20
2022-09-26T07:09:12.497Z,12.20
2022-09-26T07:10:40.394Z,12.20
2022-09-26T07:12:13.048Z,12.20
2022-09-26T07:13:10.672Z,12.30
2022-09-26T07:14:16.754Z,12.30
2022-09-26T07:15:25.073Z,12.30
2022-09-26T07:16:27.003Z,12.40
2022-09-26T07:17:33.714Z,12.40
2022-09-26T07:18:46.586Z,12.40
2022-09-26T07:19:56.721Z,12.40
2022-09-26T07:21:28.889Z,12.40
2022-09-26T07:23:03.794Z,12.40
2022-09-26T07:24:05.837Z,12.40
2022-09-26T07:25:07.810Z,12.40
2022-09-26T07:26:09.360Z,12.40
2022-09-26T07:27:11.295Z,12.40
2022-09-26T07:28:14.053Z,12.40
2022-09-26T07:29:19.174Z,12.50
2022-09-26T07:30:20.926Z,12.50
2022-09-26T07:31:41.614Z,12.60
2022-09-26T07:32:49.848Z,12.60
2022-09-26T07:34:08.687Z,12.70
2022-09-26T07:35:12.404Z,12.80
2022-09-26T07:36:14.343Z,12.90
2022-09-26T07:37:17.322Z,13.00
2022-09-26T07:38:20.548Z,13.00
2022-09-26T07:39:23.486Z,13.10
2022-09-26T07:40:26.180Z,13.10
2022-09-26T07:41:31.202Z,13.10
2022-09-26T07:42:33.382Z,13.20
2022-09-26T07:44:19.295Z,13.30
2022-09-26T07:46:39.559Z,13.40
2022-09-26T07:48:03.663Z,13.40
2022-09-26T07:49:43.914Z,13.40
2022-09-26T07:50:55.625Z,13.40
2022-09-26T07:52:05.960Z,13.50
2022-09-26T07:53:30.239Z,13.40
2022-09-26T07:54:50.287Z,13.50
2022-09-26T07:56:06.392Z,13.40
2022-09-26T07:57:35.404Z,13.40
2022-09-26T07:58:56.001Z,13.40
2022-09-26T08:00:21.285Z,13.40
2022-09-26T08:01:34.400Z,13.40
2022-09-26T08:03:00.913Z,13.40
2022-09-26T08:04:03.862Z,13.40
2022-09-26T08:05:11.957Z,13.40
2022-09-26T08:06:14.737Z,13.30
2022-09-26T08:07:16.565Z,13.40
2022-09-26T08:08:28.109Z,13.40
2022-09-26T08:09:54.084Z,13.40
2022-09-26T08:11:20.194Z,13.50
2022-09-26T08:12:36.355Z,13.50
2022-09-26T08:13:45.688Z,13.50
2022-09-26T08:15:07.693Z,13.50
2022-09-26T08:16:21.041Z,13.60
2022-09-26T08:17:22.962Z,13.60
2022-09-26T08:18:24.509Z,13.60
2022-09-26T08:19:26.036Z,13.70
2022-09-26T08:20:32.050Z,13.70
2022-09-26T08:21:35.367Z,13.70
2022-09-26T08:22:37.630Z,13.60
2022-09-26T08:23:39.757Z,13.60
2022-09-26T08:25:02.459Z,13.50
2022-09-26T08:26:12.796Z,13.60
2022-09-26T08:27:22.666Z,13.60
2022-09-26T08:28:27.378Z,13.60
2022-09-26T08:29:32.259Z,13.60
2022-09-26T08:30:34.244Z,13.60
2022-09-26T08:31:38.752Z,13.50
2022-09-26T08:32:41.278Z,13.50
2022-09-26T08:33:44.223Z,13.40
2022-09-26T08:34:47.085Z,13.40
2022-09-26T08:36:13.544Z,13.50
2022-09-26T08:37:47.968Z,13.50
2022-09-26T08:39:15.841Z,13.50
2022-09-26T08:40:45.947Z,13.60
2022-09-26T08:42:19.358Z,13.60
2022-09-26T08:43:47.628Z,13.70
2022-09-26T08:45:46.707Z,13.70
2022-09-26T08:47:35.064Z,13.80
2022-09-26T08:49:19.067Z,13.90
2022-09-26T08:50:32.576Z,14.00
2022-09-26T08:51:55.527Z,14.10
2022-09-26T08:53:05.436Z,14.20
2022-09-26T08:54:20.320Z,14.20
2022-09-26T08:55:26.822Z,14.30
2022-09-26T08:56:39.194Z,14.40
2022-09-26T08:57:50.120Z,14.50
2022-09-26T08:58:54.781Z,14.70
2022-09-26T09:00:00.405Z,14.80
2022-09-26T09:01:04.481Z,15.00
2022-09-26T09:02:36.012Z,15.10
2022-09-26T09:03:56.380Z,15.30
2022-09-26T09:05:09.642Z,15.40
2022-09-26T09:06:17.284Z,15.50
2022-09-26T09:07:23.413Z,15.60
2022-09-26T09:08:48.508Z,15.60
2022-09-26T09:10:31.506Z,15.60
2022-09-26T09:11:56.505Z,15.70
2022-09-26T09:13:08.881Z,15.80
2022-09-26T09:14:30.409Z,15.80
2022-09-26T09:15:59.030Z,15.90
2022-09-26T09:17:30.455Z,15.90
2022-09-26T09:19:14.328Z,15.90
2022-09-26T09:20:41.155Z,16.00
2022-09-26T09:22:26.307Z,16.00
2022-09-26T09:24:00.879Z,16.00
2022-09-26T09:25:10.189Z,16.00
2022-09-26T09:28:12.115Z,15.90
2022-09-26T09:29:31.289Z,16.00
2022-09-26T09:31:05.898Z,16.20
2022-09-26T09:32:43.868Z,16.30
2022-09-26T09:33:59.681Z,16.20
2022-09-26T09:35:32.467Z,16.30
2022-09-26T09:36:48.661Z,16.20
2022-09-26T09:38:06.571Z,16.30
2022-09-26T09:39:33.673Z,16.30
2022-09-26T09:40:42.861Z,16.30
2022-09-26T09:41:52.688Z,16.30
2022-09-26T09:43:01.624Z,16.30
2022-09-26T09:44:17.480Z,16.40
2022-09-26T09:45:23.000Z,16.60
2022-09-26T09:46:33.164Z,16.60
2022-09-26T09:47:39.870Z,16.60
2022-09-26T09:48:41.419Z,16.40
2022-09-26T09:49:44.924Z,16.30
2022-09-26T09:51:10.863Z,16.30
2022-09-26T09:52:31.499Z,16.50
2022-09-26T09:54:00.923Z,16.50
2022-09-26T09:55:11.242Z,16.60
2022-09-26T09:56:26.558Z,16.60
2022-09-26T09:57:34.106Z,16.70
2022-09-26T09:59:17.694Z,16.70
2022-09-26T10:00:30.754Z,16.80
2022-09-26T10:01:46.894Z,16.80
2022-09-26T10:03:34.842Z,16.80
2022-09-26T10:04:43.951Z,16.90
2022-09-26T10:05:53.904Z,17.00
2022-09-26T10:07:03.928Z,17.00
2022-09-26T10:08:13.142Z,17.00
2022-09-26T10:09:43.973Z,17.00
2022-09-26T10:11:31.051Z,17.00
2022-09-26T10:12:35.008Z,17.00
2022-09-26T10:13:45.097Z,17.00
2022-09-26T10:15:19.937Z,17.00
2022-09-26T10:17:19.503Z,17.00
2022-09-26T10:18:30.501Z,16.90
2022-09-26T10:19:46.347Z,16.90
2022-09-26T10:21:10.977Z,16.80
2022-09-26T10:22:29.259Z,16.80
2022-09-26T10:23:32.881Z,16.80
2022-09-26T10:24:41.710Z,16.80
2022-09-26T10:25:48.648Z,16.90
2022-09-26T10:26:51.135Z,17.00
2022-09-26T10:28:06.229Z,16.90
2022-09-26T10:29:34.738Z,16.90
2022-09-26T10:30:48.642Z,16.90
2022-09-26T10:31:57.271Z,16.90
2022-09-26T10:33:29.143Z,17.00
2022-09-26T10:34:41.303Z,17.00
2022-09-26T10:35:45.237Z,17.10
2022-09-26T10:36:48.964Z,17.00
2022-09-26T10:38:02.973Z,17.10
2022-09-26T10:39:34.888Z,17.10
2022-09-26T10:40:47.977Z,17.10
2022-09-26T10:41:57.805Z,17.00
2022-09-26T10:43:18.372Z,17.10
2022-09-26T10:44:38.737Z,17.20
2022-09-26T10:45:40.166Z,17.20
2022-09-26T10:47:08.659Z,17.20
2022-09-26T10:48:56.028Z,17.20
2022-09-26T10:50:30.773Z,17.30
2022-09-26T10:52:16.031Z,17.40
2022-09-26T10:53:23.213Z,17.40
2022-09-26T10:54:41.175Z,17.40
2022-09-26T10:55:56.388Z,17.30
2022-09-26T10:56:59.195Z,17.20
2022-09-26T10:58:12.960Z,17.20
2022-09-26T10:59:19.091Z,17.10
2022-09-26T11:00:42.570Z,17.10
2022-09-26T11:01:57.387Z,17.00
2022-09-26T11:02:59.670Z,16.90
2022-09-26T11:04:36.510Z,16.90
2022-09-26T11:06:04.451Z,16.80
2022-09-26T11:07:11.155Z,16.70
2022-09-26T11:08:34.373Z,16.70
2022-09-26T11:09:59.989Z,16.60
2022-09-26T11:11:17.633Z,16.70
2022-09-26T11:12:39.793Z,16.50
2022-09-26T11:14:03.444Z,16.30
2022-09-26T11:15:08.174Z,16.20
2022-09-26T11:16:13.503Z,16.10
2022-09-26T11:17:19.515Z,16.20
2022-09-26T11:18:45.303Z,16.20
2022-09-26T11:19:58.613Z,16.20
2022-09-26T11:21:29.765Z,16.20
2022-09-26T11:23:04.711Z,16.30
2022-09-26T11:24:42.544Z,16.30
2022-09-26T11:25:47.051Z,16.20
2022-09-26T11:27:06.505Z,16.10
2022-09-26T11:28:17.648Z,16.20
2022-09-26T11:29:49.637Z,16.20
2022-09-26T11:31:01.657Z,16.20
2022-09-26T11:32:06.465Z,16.20
2022-09-26T11:33:23.439Z,16.10
2022-09-26T11:34:54.624Z,16.10
2022-09-26T11:36:22.543Z,16.10
2022-09-26T11:37:51.373Z,16.00
2022-09-26T11:38:57.621Z,16.10
2022-09-26T11:40:24.966Z,16.10
2022-09-26T11:41:55.609Z,16.10
2022-09-26T11:43:22.375Z,16.00
2022-09-26T11:44:53.903Z,16.00
2022-09-26T11:46:11.142Z,16.10
2022-09-26T11:47:38.378Z,16.10
2022-09-26T11:49:13.067Z,16.10
2022-09-26T11:51:08.108Z,16.20
2022-09-26T11:52:45.549Z,16.20
2022-09-26T11:54:20.370Z,16.20
2022-09-26T11:55:51.171Z,16.30
2022-09-26T11:57:11.418Z,16.30
2022-09-26T11:58:19.168Z,16.30
2022-09-26T11:59:46.533Z,16.30
2022-09-26T12:01:08.088Z,16.30
2022-09-26T12:02:32.593Z,16.30
2022-09-26T12:04:01.018Z,16.40
2022-09-26T12:05:02.662Z,16.40
2022-09-26T12:06:18.049Z,16.50
2022-09-26T12:07:21.586Z,16.50
2022-09-26T12:08:42.227Z,16.60
2022-09-26T12:10:08.423Z,16.60
2022-09-26T12:11:38.228Z,16.60
2022-09-26T12:12:57.624Z,16.60
2022-09-26T12:14:09.336Z,16.80
2022-09-26T12:15:22.160Z,16.80
2022-09-26T12:16:53.116Z,16.80
2022-09-26T12:18:11.963Z,16.80
2022-09-26T12:19:33.823Z,16.90
2022-09-26T12:20:43.523Z,16.90
2022-09-26T12:22:11.239Z,17.00
2022-09-26T12:23:43.656Z,17.10
2022-09-26T12:24:51.934Z,17.20
2022-09-26T12:26:34.639Z,17.20
2022-09-26T12:27:59.226Z,17.20
2022-09-26T12:29:12.733Z,16.90
2022-09-26T12:30:18.152Z,17.00
2022-09-26T12:31:42.095Z,17.10
2022-09-26T12:33:01.244Z,17.20
2022-09-26T12:34:21.571Z,17.40
2022-09-26T12:35:55.361Z,17.30
2022-09-26T12:37:14.179Z,17.10
2022-09-26T12:38:24.443Z,17.10
2022-09-26T12:39:41.568Z,17.30
2022-09-26T12:41:14.162Z,17.50
2022-09-26T12:42:26.487Z,17.60
2022-09-26T12:43:44.636Z,17.70
2022-09-26T12:44:51.812Z,17.60
2022-09-26T12:46:38.194Z,17.40
2022-09-26T12:47:52.265Z,17.20
2022-09-26T12:49:12.750Z,17.10
2022-09-26T12:50:24.898Z,17.10
2022-09-26T12:51:59.494Z,17.00
2022-09-26T12:53:48.539Z,17.00
2022-09-26T12:55:14.508Z,16.80
2022-09-26T12:56:22.444Z,16.60
2022-09-26T12:57:53.610Z,16.40
2022-09-26T12:59:14.276Z,16.20
2022-09-26T13:00:21.503Z,15.90
2022-09-26T13:01:48.830Z,15.50
2022-09-26T13:03:21.228Z,15.20
2022-09-26T13:05:04.656Z,14.80
2022-09-26T13:06:25.500Z,14.30
2022-09-26T13:07:42.131Z,14.20
2022-09-26T13:08:54.336Z,13.80
2022-09-26T13:10:06.506Z,13.50
2022-09-26T13:11:27.352Z,13.50
2022-09-26T13:13:24.936Z,13.50
2022-09-26T13:14:57.223Z,13.60
2022-09-26T13:16:35.001Z,13.80
2022-09-26T13:17:45.855Z,14.00
2022-09-26T13:18:56.524Z,14.10
2022-09-26T13:20:19.124Z,14.30
2022-09-26T13:21:31.921Z,14.40
2022-09-26T13:22:42.425Z,14.40
2022-09-26T13:23:53.858Z,14.50
2022-09-26T13:25:05.917Z,14.60
2022-09-26T13:26:18.154Z,14.80
2022-09-26T13:27:27.709Z,14.90
2022-09-26T13:28:38.241Z,14.90
2022-09-26T13:29:43.934Z,14.90
2022-09-26T13:30:55.135Z,15.00
2022-09-26T13:32:04.485Z,15.10
2022-09-26T13:33:11.266Z,15.20
2022-09-26T13:34:22.179Z,15.20
2022-09-26T13:35:26.384Z,15.30
2022-09-26T13:36:31.197Z,15.40
2022-09-26T13:37:47.758Z,15.50
2022-09-26T13:39:14.762Z,15.50
2022-09-26T13:40:36.566Z,15.50
2022-09-26T13:42:01.357Z,15.60
2022-09-26T13:43:19.237Z,15.70
2022-09-26T13:44:47.000Z,15.80
2022-09-26T13:46:40.942Z,15.90
2022-09-26T13:48:05.333Z,16.00
2022-09-26T13:49:36.681Z,16.10
2022-09-26T13:50:47.748Z,16.20
2022-09-26T13:52:06.238Z,16.20
2022-09-26T13:53:10.748Z,16.20
2022-09-26T13:54:27.354Z,16.30
2022-09-26T13:55:30.412Z,16.30
2022-09-26T13:56:35.080Z,16.30
2022-09-26T13:57:43.498Z,16.40
2022-09-26T13:58:45.243Z,16.40
2022-09-26T13:59:51.597Z,16.40
2022-09-26T14:00:53.326Z,16.50
2022-09-26T14:02:19.697Z,16.50
2022-09-26T14:03:22.195Z,16.50
2022-09-26T14:04:37.509Z,16.60
2022-09-26T14:05:41.728Z,16.60
2022-09-26T14:07:29.785Z,16.60
2022-09-26T14:08:52.454Z,16.60
2022-09-26T14:10:02.730Z,16.70
2022-09-26T14:11:14.792Z,16.60
2022-09-26T14:12:34.793Z,16.70
2022-09-26T14:13:37.440Z,16.60
2022-09-26T14:14:44.887Z,16.50
2022-09-26T14:15:49.390Z,16.50
2022-09-26T14:16:57.018Z,16.40
2022-09-26T14:18:07.898Z,16.40
2022-09-26T14:19:36.255Z,16.30
2022-09-26T14:20:55.707Z,16.30
2022-09-26T14:22:05.368Z,16.20
2022-09-26T14:23:45.801Z,16.20
2022-09-26T14:24:52.277Z,16.10
2022-09-26T14:25:55.745Z,16.10
2022-09-26T14:27:12.170Z,16.10
2022-09-26T14:28:33.339Z,16.10
2022-09-26T14:30:07.452Z,16.10
2022-09-26T14:31:19.456Z,16.20
2022-09-26T14:32:28.095Z,16.30
2022-09-26T14:33:29.491Z,16.30
2022-09-26T14:34:38.249Z,16.40
2022-09-26T14:35:39.964Z,16.30
2022-09-26T14:36:43.682Z,16.30
2022-09-26T14:37:49.382Z,16.30
2022-09-26T14:38:52.096Z,16.30
2022-09-26T14:40:30.519Z,16.30
2022-09-26T14:41:35.211Z,16.20
2022-09-26T14:42:36.558Z,16.20
2022-09-26T14:43:41.203Z,16.10
2022-09-26T14:44:52.174Z,16.10
2022-09-26T14:46:02.926Z,16.00
2022-09-26T14:47:15.192Z,16.00
2022-09-26T14:48:29.122Z,16.00
2022-09-26T14:49:30.774Z,15.90
2022-09-26T14:50:36.715Z,15.90
2022-09-26T14:51:42.537Z,15.90
2022-09-26T14:52:56.375Z,15.90
2022-09-26T14:54:00.498Z,15.90
2022-09-26T14:55:06.110Z,15.90
2022-09-26T14:56:27.188Z,15.80
2022-09-26T14:57:32.838Z,15.80
2022-09-26T14:59:13.778Z,15.80
2022-09-26T15:00:43.180Z,15.80
2022-09-26T15:01:45.304Z,15.60
2022-09-26T15:02:50.482Z,15.60
2022-09-26T15:03:55.052Z,15.50
2022-09-26T15:05:24.485Z,15.40
2022-09-26T15:06:27.829Z,15.40
2022-09-26T15:07:34.427Z,15.40
2022-09-26T15:08:39.453Z,15.30
2022-09-26T15:09:45.862Z,15.30
2022-09-26T15:10:48.607Z,15.20
2022-09-26T15:12:02.283Z,15.30
2022-09-26T15:13:38.921Z,15.20
2022-09-26T15:14:48.133Z,15.20
2022-09-26T15:16:15.661Z,15.10
2022-09-26T15:17:23.261Z,15.10
2022-09-26T15:18:27.471Z,15.10
2022-09-26T15:19:34.447Z,15.00
2022-09-26T15:20:40.641Z,15.00
2022-09-26T15:21:45.402Z,15.00
2022-09-26T15:22:50.078Z,15.00
2022-09-26T15:23:54.766Z,15.00
2022-09-26T15:25:25.665Z,14.90
2022-09-26T15:26:31.829Z,14.90
2022-09-26T15:27:33.664Z,14.90
2022-09-26T15:28:38.461Z,14.80
2022-09-26T15:29:51.786Z,14.80
2022-09-26T15:31:20.430Z,14.70
2022-09-26T15:32:28.022Z,14.70
2022-09-26T15:33:30.278Z,14.70
2022-09-26T15:34:39.069Z,14.60
2022-09-26T15:35:41.110Z,14.60
2022-09-26T15:36:45.048Z,14.50
2022-09-26T15:37:46.845Z,14.50